sensor_id;sensor_type;location;lat;lon;timestamp;temperature;humidity
14705;DHT22;7442;50.840;3.396;2023-02-17T00:01:59;23.50;44.10
14705;DHT22;7442;50.840;3.396;2023-02-17T00:04:31;23.50;44.10
14705;DHT22;7442;50.840;3.396;2023-02-17T00:07:01;23.60;44.00
14705;DHT22;7442;50.840;3.396;2023-02-17T00:09:31;23.70;43.80
14705;DHT22;7442;50.840;3.396;2023-02-17T00:12:01;23.70;43.80
14705;DHT22;7442;50.840;3.396;2023-02-17T00:14:31;23.70;43.90
14705;DHT22;7442;50.840;3.396;2023-02-17T00:17:01;23.70;43.80
14705;DHT22;7442;50.840;3.396;2023-02-17T00:19:31;23.80;43.40
14705;DHT22;7442;50.840;3.396;2023-02-17T00:22:01;23.90;43.10
14705;DHT22;7442;50.840;3.396;2023-02-17T00:24:35;24.10;43.00
14705;DHT22;7442;50.840;3.396;2023-02-17T00:27:05;24.20;42.60
14705;DHT22;7442;50.840;3.396;2023-02-17T00:29:35;24.20;42.70
14705;DHT22;7442;50.840;3.396;2023-02-17T00:32:05;24.10;42.80
14705;DHT22;7442;50.840;3.396;2023-02-17T00:34:35;24.10;42.80
14705;DHT22;7442;50.840;3.396;2023-02-17T00:37:06;24.10;42.90
14705;DHT22;7442;50.840;3.396;2023-02-17T00:39:36;24.00;43.00
14705;DHT22;7442;50.840;3.396;2023-02-17T00:42:06;24.00;43.10
14705;DHT22;7442;50.840;3.396;2023-02-17T00:44:36;23.90;43.10
14705;DHT22;7442;50.840;3.396;2023-02-17T00:47:06;24.00;43.10
14705;DHT22;7442;50.840;3.396;2023-02-17T00:49:36;23.90;43.10
14705;DHT22;7442;50.840;3.396;2023-02-17T00:52:06;23.90;43.10
14705;DHT22;7442;50.840;3.396;2023-02-17T00:54:36;23.90;43.10
14705;DHT22;7442;50.840;3.396;2023-02-17T00:57:07;23.90;43.10
14705;DHT22;7442;50.840;3.396;2023-02-17T00:59:37;23.90;43.20
14705;DHT22;7442;50.840;3.396;2023-02-17T01:02:07;23.90;43.20
14705;DHT22;7442;50.840;3.396;2023-02-17T01:04:37;23.90;43.10
14705;DHT22;7442;50.840;3.396;2023-02-17T01:07:08;23.90;43.20
14705;DHT22;7442;50.840;3.396;2023-02-17T01:09:38;23.90;43.20
14705;DHT22;7442;50.840;3.396;2023-02-17T01:12:11;23.90;43.20
14705;DHT22;7442;50.840;3.396;2023-02-17T01:14:41;23.90;43.30
14705;DHT22;7442;50.840;3.396;2023-02-17T01:17:11;23.80;43.20
14705;DHT22;7442;50.840;3.396;2023-02-17T01:19:41;23.80;43.20
14705;DHT22;7442;50.840;3.396;2023-02-17T01:22:11;23.80;43.30
14705;DHT22;7442;50.840;3.396;2023-02-17T01:24:41;23.80;43.30
14705;DHT22;7442;50.840;3.396;2023-02-17T01:27:11;23.80;43.30
14705;DHT22;7442;50.840;3.396;2023-02-17T01:29:44;23.90;43.30
14705;DHT22;7442;50.840;3.396;2023-02-17T01:32:14;23.90;43.10
14705;DHT22;7442;50.840;3.396;2023-02-17T01:34:46;23.90;43.10
14705;DHT22;7442;50.840;3.396;2023-02-17T01:37:18;23.90;43.00
14705;DHT22;7442;50.840;3.396;2023-02-17T01:39:48;23.90;43.00
14705;DHT22;7442;50.840;3.396;2023-02-17T01:42:19;23.90;43.00
14705;DHT22;7442;50.840;3.396;2023-02-17T01:47:53;24.00;43.00
14705;DHT22;7442;50.840;3.396;2023-02-17T01:50:38;24.00;42.80
14705;DHT22;7442;50.840;3.396;2023-02-17T01:53:05;24.00;42.80
14705;DHT22;7442;50.840;3.396;2023-02-17T01:55:38;24.00;42.80
14705;DHT22;7442;50.840;3.396;2023-02-17T01:58:10;23.90;42.90
14705;DHT22;7442;50.840;3.396;2023-02-17T02:00:43;23.90;43.10
14705;DHT22;7442;50.840;3.396;2023-02-17T02:03:14;23.90;43.20
14705;DHT22;7442;50.840;3.396;2023-02-17T02:05:44;23.80;43.20
14705;DHT22;7442;50.840;3.396;2023-02-17T02:08:15;23.80;43.30
14705;DHT22;7442;50.840;3.396;2023-02-17T02:10:45;23.80;43.30
14705;DHT22;7442;50.840;3.396;2023-02-17T02:13:15;23.80;43.40
14705;DHT22;7442;50.840;3.396;2023-02-17T02:16:52;23.70;43.50
14705;DHT22;7442;50.840;3.396;2023-02-17T02:24:14;23.80;43.40
14705;DHT22;7442;50.840;3.396;2023-02-17T02:27:06;23.90;43.10
14705;DHT22;7442;50.840;3.396;2023-02-17T02:29:55;23.90;43.20
14705;DHT22;7442;50.840;3.396;2023-02-17T02:32:45;23.90;43.00
14705;DHT22;7442;50.840;3.396;2023-02-17T02:35:43;23.90;43.00
14705;DHT22;7442;50.840;3.396;2023-02-17T02:41:18;23.90;43.10
14705;DHT22;7442;50.840;3.396;2023-02-17T02:43:43;23.90;43.00
14705;DHT22;7442;50.840;3.396;2023-02-17T02:46:14;24.00;43.00
14705;DHT22;7442;50.840;3.396;2023-02-17T02:48:45;24.00;42.90
14705;DHT22;7442;50.840;3.396;2023-02-17T02:57:10;23.90;43.00
14705;DHT22;7442;50.840;3.396;2023-02-17T03:02:47;24.00;42.90
14705;DHT22;7442;50.840;3.396;2023-02-17T03:08:13;23.90;42.90
14705;DHT22;7442;50.840;3.396;2023-02-17T03:10:51;24.00;43.00
14705;DHT22;7442;50.840;3.396;2023-02-17T03:13:24;24.00;42.80
14705;DHT22;7442;50.840;3.396;2023-02-17T03:15:54;24.00;42.80
14705;DHT22;7442;50.840;3.396;2023-02-17T03:18:24;24.00;42.80
14705;DHT22;7442;50.840;3.396;2023-02-17T03:20:56;24.10;42.20
14705;DHT22;7442;50.840;3.396;2023-02-17T03:23:27;24.20;42.60
14705;DHT22;7442;50.840;3.396;2023-02-17T03:25:58;24.10;42.60
14705;DHT22;7442;50.840;3.396;2023-02-17T03:28:28;24.10;42.60
14705;DHT22;7442;50.840;3.396;2023-02-17T03:30:59;24.20;42.60
14705;DHT22;7442;50.840;3.396;2023-02-17T03:33:29;24.20;42.60
14705;DHT22;7442;50.840;3.396;2023-02-17T03:35:59;24.20;42.50
14705;DHT22;7442;50.840;3.396;2023-02-17T03:38:29;24.20;42.50
14705;DHT22;7442;50.840;3.396;2023-02-17T03:40:59;24.20;42.60
14705;DHT22;7442;50.840;3.396;2023-02-17T03:43:29;24.10;42.80
14705;DHT22;7442;50.840;3.396;2023-02-17T03:46:00;24.00;43.00
14705;DHT22;7442;50.840;3.396;2023-02-17T03:48:30;23.90;43.20
14705;DHT22;7442;50.840;3.396;2023-02-17T03:51:11;23.90;43.30
14705;DHT22;7442;50.840;3.396;2023-02-17T03:53:42;23.80;43.40
14705;DHT22;7442;50.840;3.396;2023-02-17T03:56:13;23.80;43.50
14705;DHT22;7442;50.840;3.396;2023-02-17T03:58:44;23.70;43.50
14705;DHT22;7442;50.840;3.396;2023-02-17T04:01:14;23.70;43.50
14705;DHT22;7442;50.840;3.396;2023-02-17T04:03:44;23.70;43.60
14705;DHT22;7442;50.840;3.396;2023-02-17T04:06:14;23.70;43.60
14705;DHT22;7442;50.840;3.396;2023-02-17T04:08:44;23.70;43.60
14705;DHT22;7442;50.840;3.396;2023-02-17T04:11:14;23.70;43.60
14705;DHT22;7442;50.840;3.396;2023-02-17T04:13:44;23.80;43.60
14705;DHT22;7442;50.840;3.396;2023-02-17T04:16:14;23.70;43.60
14705;DHT22;7442;50.840;3.396;2023-02-17T04:18:45;23.70;43.60
14705;DHT22;7442;50.840;3.396;2023-02-17T04:21:16;23.70;43.60
14705;DHT22;7442;50.840;3.396;2023-02-17T04:23:47;23.80;43.60
14705;DHT22;7442;50.840;3.396;2023-02-17T04:26:17;23.70;43.60
14705;DHT22;7442;50.840;3.396;2023-02-17T04:28:48;23.70;43.60
14705;DHT22;7442;50.840;3.396;2023-02-17T04:31:18;23.70;43.70
14705;DHT22;7442;50.840;3.396;2023-02-17T04:33:48;23.70;43.70
14705;DHT22;7442;50.840;3.396;2023-02-17T04:36:18;23.70;43.70
14705;DHT22;7442;50.840;3.396;2023-02-17T04:38:48;23.70;43.70
14705;DHT22;7442;50.840;3.396;2023-02-17T04:41:18;23.70;43.70
14705;DHT22;7442;50.840;3.396;2023-02-17T04:43:48;23.70;43.70
14705;DHT22;7442;50.840;3.396;2023-02-17T04:46:18;23.60;43.80
14705;DHT22;7442;50.840;3.396;2023-02-17T04:48:48;23.70;43.80
14705;DHT22;7442;50.840;3.396;2023-02-17T04:51:18;23.70;43.70
14705;DHT22;7442;50.840;3.396;2023-02-17T04:53:48;23.70;43.70
14705;DHT22;7442;50.840;3.396;2023-02-17T04:56:18;23.70;43.70
14705;DHT22;7442;50.840;3.396;2023-02-17T04:58:49;23.70;43.80
14705;DHT22;7442;50.840;3.396;2023-02-17T05:01:19;23.70;43.80
14705;DHT22;7442;50.840;3.396;2023-02-17T05:03:49;23.70;43.80
14705;DHT22;7442;50.840;3.396;2023-02-17T05:06:19;23.70;43.70
14705;DHT22;7442;50.840;3.396;2023-02-17T05:08:49;23.70;43.70
14705;DHT22;7442;50.840;3.396;2023-02-17T05:11:19;23.70;43.70
14705;DHT22;7442;50.840;3.396;2023-02-17T05:13:49;23.70;43.70
14705;DHT22;7442;50.840;3.396;2023-02-17T05:16:19;23.70;43.70
14705;DHT22;7442;50.840;3.396;2023-02-17T05:18:49;23.70;43.70
14705;DHT22;7442;50.840;3.396;2023-02-17T05:21:20;23.80;43.70
14705;DHT22;7442;50.840;3.396;2023-02-17T05:23:50;23.70;43.70
14705;DHT22;7442;50.840;3.396;2023-02-17T05:26:20;23.70;43.70
14705;DHT22;7442;50.840;3.396;2023-02-17T05:28:50;23.70;43.70
14705;DHT22;7442;50.840;3.396;2023-02-17T05:31:21;23.70;43.70
14705;DHT22;7442;50.840;3.396;2023-02-17T05:33:53;23.80;43.70
14705;DHT22;7442;50.840;3.396;2023-02-17T05:36:23;23.80;43.70
14705;DHT22;7442;50.840;3.396;2023-02-17T05:38:53;23.80;43.70
14705;DHT22;7442;50.840;3.396;2023-02-17T05:41:23;23.80;43.70
14705;DHT22;7442;50.840;3.396;2023-02-17T05:43:53;23.80;43.60
14705;DHT22;7442;50.840;3.396;2023-02-17T05:46:23;23.80;43.70
14705;DHT22;7442;50.840;3.396;2023-02-17T05:48:53;23.80;43.70
14705;DHT22;7442;50.840;3.396;2023-02-17T05:51:23;23.80;43.70
14705;DHT22;7442;50.840;3.396;2023-02-17T05:53:53;23.80;43.70
14705;DHT22;7442;50.840;3.396;2023-02-17T05:56:23;23.80;43.70
14705;DHT22;7442;50.840;3.396;2023-02-17T05:58:53;23.80;43.70
14705;DHT22;7442;50.840;3.396;2023-02-17T06:01:23;23.90;43.70
14705;DHT22;7442;50.840;3.396;2023-02-17T06:03:53;23.80;43.70
14705;DHT22;7442;50.840;3.396;2023-02-17T06:06:23;23.80;43.70
14705;DHT22;7442;50.840;3.396;2023-02-17T06:08:53;23.80;43.70
14705;DHT22;7442;50.840;3.396;2023-02-17T06:11:23;23.80;43.70
14705;DHT22;7442;50.840;3.396;2023-02-17T06:13:53;23.90;43.70
14705;DHT22;7442;50.840;3.396;2023-02-17T06:16:23;23.80;43.70
14705;DHT22;7442;50.840;3.396;2023-02-17T06:18:55;23.90;43.80
14705;DHT22;7442;50.840;3.396;2023-02-17T06:21:27;23.90;44.00
14705;DHT22;7442;50.840;3.396;2023-02-17T06:23:57;23.90;44.50
14705;DHT22;7442;50.840;3.396;2023-02-17T06:26:27;23.90;44.70
14705;DHT22;7442;50.840;3.396;2023-02-17T06:28:57;23.90;44.80
14705;DHT22;7442;50.840;3.396;2023-02-17T06:31:27;23.90;44.80
14705;DHT22;7442;50.840;3.396;2023-02-17T06:33:57;23.90;45.00
14705;DHT22;7442;50.840;3.396;2023-02-17T06:36:28;23.90;45.10
14705;DHT22;7442;50.840;3.396;2023-02-17T06:38:58;24.00;45.40
14705;DHT22;7442;50.840;3.396;2023-02-17T06:41:28;23.90;46.00
14705;DHT22;7442;50.840;3.396;2023-02-17T06:43:58;24.00;45.20
14705;DHT22;7442;50.840;3.396;2023-02-17T06:46:28;24.00;45.20
14705;DHT22;7442;50.840;3.396;2023-02-17T06:48:58;24.00;45.00
14705;DHT22;7442;50.840;3.396;2023-02-17T06:51:29;24.00;45.10
14705;DHT22;7442;50.840;3.396;2023-02-17T06:53:59;24.00;45.00
14705;DHT22;7442;50.840;3.396;2023-02-17T06:56:29;24.00;45.10
14705;DHT22;7442;50.840;3.396;2023-02-17T06:59:00;24.00;45.00
14705;DHT22;7442;50.840;3.396;2023-02-17T07:01:30;24.00;45.00
14705;DHT22;7442;50.840;3.396;2023-02-17T07:04:00;24.00;44.80
14705;DHT22;7442;50.840;3.396;2023-02-17T07:06:31;24.10;44.80
14705;DHT22;7442;50.840;3.396;2023-02-17T07:09:02;24.00;44.70
14705;DHT22;7442;50.840;3.396;2023-02-17T07:11:32;24.10;44.70
14705;DHT22;7442;50.840;3.396;2023-02-17T07:14:02;24.00;44.70
14705;DHT22;7442;50.840;3.396;2023-02-17T07:16:32;24.00;44.60
14705;DHT22;7442;50.840;3.396;2023-02-17T07:19:02;24.00;44.60
14705;DHT22;7442;50.840;3.396;2023-02-17T07:21:32;24.10;44.60
14705;DHT22;7442;50.840;3.396;2023-02-17T07:24:02;24.10;44.50
14705;DHT22;7442;50.840;3.396;2023-02-17T07:26:34;24.10;44.40
14705;DHT22;7442;50.840;3.396;2023-02-17T07:29:06;24.10;44.30
14705;DHT22;7442;50.840;3.396;2023-02-17T07:31:36;24.20;44.30
14705;DHT22;7442;50.840;3.396;2023-02-17T07:34:07;24.20;44.20
14705;DHT22;7442;50.840;3.396;2023-02-17T07:36:37;24.20;44.10
14705;DHT22;7442;50.840;3.396;2023-02-17T07:39:07;24.20;44.00
14705;DHT22;7442;50.840;3.396;2023-02-17T07:41:39;24.20;44.10
14705;DHT22;7442;50.840;3.396;2023-02-17T07:44:09;24.30;44.00
14705;DHT22;7442;50.840;3.396;2023-02-17T07:46:43;24.30;44.00
14705;DHT22;7442;50.840;3.396;2023-02-17T07:49:13;24.30;43.90
14705;DHT22;7442;50.840;3.396;2023-02-17T07:51:43;24.30;43.90
14705;DHT22;7442;50.840;3.396;2023-02-17T07:54:13;24.30;43.90
14705;DHT22;7442;50.840;3.396;2023-02-17T07:56:43;24.30;43.90
14705;DHT22;7442;50.840;3.396;2023-02-17T07:59:14;24.30;43.80
14705;DHT22;7442;50.840;3.396;2023-02-17T08:01:44;24.40;43.70
14705;DHT22;7442;50.840;3.396;2023-02-17T08:04:15;24.30;43.70
14705;DHT22;7442;50.840;3.396;2023-02-17T08:06:46;24.30;43.70
14705;DHT22;7442;50.840;3.396;2023-02-17T08:09:16;24.40;43.70
14705;DHT22;7442;50.840;3.396;2023-02-17T08:12:04;24.30;43.70
14705;DHT22;7442;50.840;3.396;2023-02-17T08:14:55;24.30;43.70
14705;DHT22;7442;50.840;3.396;2023-02-17T08:17:24;24.40;43.70
14705;DHT22;7442;50.840;3.396;2023-02-17T08:19:55;24.30;43.70
14705;DHT22;7442;50.840;3.396;2023-02-17T08:22:26;24.40;43.70
14705;DHT22;7442;50.840;3.396;2023-02-17T08:25:00;24.30;43.80
14705;DHT22;7442;50.840;3.396;2023-02-17T08:27:30;24.30;43.80
14705;DHT22;7442;50.840;3.396;2023-02-17T08:30:00;24.40;43.50
14705;DHT22;7442;50.840;3.396;2023-02-17T08:32:31;24.50;43.60
14705;DHT22;7442;50.840;3.396;2023-02-17T08:35:01;24.50;43.20
14705;DHT22;7442;50.840;3.396;2023-02-17T08:37:32;24.40;43.30
14705;DHT22;7442;50.840;3.396;2023-02-17T08:40:02;24.40;43.20
14705;DHT22;7442;50.840;3.396;2023-02-17T08:42:32;24.50;43.30
14705;DHT22;7442;50.840;3.396;2023-02-17T08:45:04;24.50;43.50
14705;DHT22;7442;50.840;3.396;2023-02-17T08:47:35;24.70;43.40
14705;DHT22;7442;50.840;3.396;2023-02-17T08:50:06;24.70;43.10
14705;DHT22;7442;50.840;3.396;2023-02-17T08:52:37;24.70;43.00
14705;DHT22;7442;50.840;3.396;2023-02-17T08:55:07;24.80;43.10
14705;DHT22;7442;50.840;3.396;2023-02-17T08:57:37;24.80;43.10
14705;DHT22;7442;50.840;3.396;2023-02-17T09:00:08;24.80;43.10
14705;DHT22;7442;50.840;3.396;2023-02-17T09:02:39;24.90;43.20
14705;DHT22;7442;50.840;3.396;2023-02-17T09:05:12;25.10;43.20
14705;DHT22;7442;50.840;3.396;2023-02-17T09:07:43;25.00;43.00
14705;DHT22;7442;50.840;3.396;2023-02-17T09:10:13;24.90;42.70
14705;DHT22;7442;50.840;3.396;2023-02-17T09:12:43;24.90;42.70
14705;DHT22;7442;50.840;3.396;2023-02-17T09:15:14;24.90;42.80
14705;DHT22;7442;50.840;3.396;2023-02-17T09:17:44;24.90;42.90
14705;DHT22;7442;50.840;3.396;2023-02-17T09:20:14;24.80;43.00
14705;DHT22;7442;50.840;3.396;2023-02-17T09:22:44;24.80;43.00
14705;DHT22;7442;50.840;3.396;2023-02-17T09:25:14;24.80;43.00
14705;DHT22;7442;50.840;3.396;2023-02-17T09:27:44;24.70;43.00
14705;DHT22;7442;50.840;3.396;2023-02-17T09:30:14;24.80;43.10
14705;DHT22;7442;50.840;3.396;2023-02-17T09:32:44;24.80;43.10
14705;DHT22;7442;50.840;3.396;2023-02-17T09:35:16;24.80;43.10
14705;DHT22;7442;50.840;3.396;2023-02-17T09:37:46;24.80;43.10
14705;DHT22;7442;50.840;3.396;2023-02-17T09:40:27;24.80;43.10
14705;DHT22;7442;50.840;3.396;2023-02-17T09:42:53;24.80;43.20
14705;DHT22;7442;50.840;3.396;2023-02-17T09:45:25;24.80;43.20
14705;DHT22;7442;50.840;3.396;2023-02-17T09:48:07;24.80;43.30
14705;DHT22;7442;50.840;3.396;2023-02-17T09:53:21;24.80;43.20
14705;DHT22;7442;50.840;3.396;2023-02-17T09:55:53;24.70;43.20
14705;DHT22;7442;50.840;3.396;2023-02-17T09:58:46;24.80;43.40
14705;DHT22;7442;50.840;3.396;2023-02-17T10:01:19;24.80;43.30
14705;DHT22;7442;50.840;3.396;2023-02-17T10:03:55;24.80;43.40
14705;DHT22;7442;50.840;3.396;2023-02-17T10:06:42;24.80;43.30
14705;DHT22;7442;50.840;3.396;2023-02-17T10:09:33;24.80;43.20
14705;DHT22;7442;50.840;3.396;2023-02-17T10:12:04;24.90;43.10
14705;DHT22;7442;50.840;3.396;2023-02-17T10:15:00;24.90;43.00
14705;DHT22;7442;50.840;3.396;2023-02-17T10:17:20;24.90;43.00
14705;DHT22;7442;50.840;3.396;2023-02-17T10:20:18;24.90;43.10
14705;DHT22;7442;50.840;3.396;2023-02-17T10:23:08;24.90;43.10
14705;DHT22;7442;50.840;3.396;2023-02-17T10:31:06;24.90;43.10
14705;DHT22;7442;50.840;3.396;2023-02-17T10:33:44;24.90;43.20
14705;DHT22;7442;50.840;3.396;2023-02-17T10:36:29;24.90;43.20
14705;DHT22;7442;50.840;3.396;2023-02-17T10:39:02;24.90;43.10
14705;DHT22;7442;50.840;3.396;2023-02-17T10:41:35;24.90;43.60
14705;DHT22;7442;50.840;3.396;2023-02-17T10:44:15;24.90;43.20
14705;DHT22;7442;50.840;3.396;2023-02-17T10:46:45;24.90;43.10
14705;DHT22;7442;50.840;3.396;2023-02-17T10:49:24;24.90;43.30
14705;DHT22;7442;50.840;3.396;2023-02-17T10:51:49;24.90;43.20
14705;DHT22;7442;50.840;3.396;2023-02-17T10:54:28;24.90;43.20
14705;DHT22;7442;50.840;3.396;2023-02-17T10:57:00;24.90;43.50
14705;DHT22;7442;50.840;3.396;2023-02-17T10:59:40;24.90;43.60
14705;DHT22;7442;50.840;3.396;2023-02-17T11:02:35;24.90;43.70
14705;DHT22;7442;50.840;3.396;2023-02-17T11:05:06;24.80;43.80
14705;DHT22;7442;50.840;3.396;2023-02-17T11:07:38;24.80;43.70
14705;DHT22;7442;50.840;3.396;2023-02-17T11:10:21;24.90;44.30
14705;DHT22;7442;50.840;3.396;2023-02-17T11:12:51;24.90;44.60
14705;DHT22;7442;50.840;3.396;2023-02-17T11:15:26;24.90;45.10
14705;DHT22;7442;50.840;3.396;2023-02-17T11:17:59;24.90;45.10
14705;DHT22;7442;50.840;3.396;2023-02-17T11:20:32;24.90;45.20
14705;DHT22;7442;50.840;3.396;2023-02-17T11:23:19;24.90;45.20
14705;DHT22;7442;50.840;3.396;2023-02-17T11:25:38;24.90;45.20
14705;DHT22;7442;50.840;3.396;2023-02-17T11:28:13;24.90;45.10
14705;DHT22;7442;50.840;3.396;2023-02-17T11:30:49;24.90;45.10
14705;DHT22;7442;50.840;3.396;2023-02-17T11:33:35;24.90;45.10
14705;DHT22;7442;50.840;3.396;2023-02-17T11:36:04;24.90;45.20
14705;DHT22;7442;50.840;3.396;2023-02-17T11:41:11;24.90;45.60
14705;DHT22;7442;50.840;3.396;2023-02-17T11:43:56;24.90;45.50
14705;DHT22;7442;50.840;3.396;2023-02-17T11:46:32;25.00;45.40
14705;DHT22;7442;50.840;3.396;2023-02-17T11:49:13;25.00;45.40
14705;DHT22;7442;50.840;3.396;2023-02-17T11:51:51;24.90;45.10
14705;DHT22;7442;50.840;3.396;2023-02-17T11:54:31;25.00;44.80
14705;DHT22;7442;50.840;3.396;2023-02-17T11:57:23;25.10;44.80
14705;DHT22;7442;50.840;3.396;2023-02-17T12:14:11;25.00;44.50
14705;DHT22;7442;50.840;3.396;2023-02-17T12:25:23;25.00;44.30
14705;DHT22;7442;50.840;3.396;2023-02-17T12:28:09;25.00;44.20
14705;DHT22;7442;50.840;3.396;2023-02-17T12:30:57;25.00;44.20
14705;DHT22;7442;50.840;3.396;2023-02-17T12:33:44;25.00;44.20
14705;DHT22;7442;50.840;3.396;2023-02-17T12:36:14;25.10;44.10
14705;DHT22;7442;50.840;3.396;2023-02-17T12:38:52;25.00;44.10
14705;DHT22;7442;50.840;3.396;2023-02-17T12:41:33;25.00;44.10
14705;DHT22;7442;50.840;3.396;2023-02-17T12:44:12;25.00;44.00
14705;DHT22;7442;50.840;3.396;2023-02-17T12:46:45;25.10;44.00
14705;DHT22;7442;50.840;3.396;2023-02-17T12:52:01;25.00;44.00
14705;DHT22;7442;50.840;3.396;2023-02-17T12:54:39;25.00;44.00
14705;DHT22;7442;50.840;3.396;2023-02-17T12:59:45;25.00;43.90
14705;DHT22;7442;50.840;3.396;2023-02-17T13:02:24;25.00;44.00
14705;DHT22;7442;50.840;3.396;2023-02-17T13:04:56;25.00;44.00
14705;DHT22;7442;50.840;3.396;2023-02-17T13:07:45;25.00;43.90
14705;DHT22;7442;50.840;3.396;2023-02-17T13:10:29;25.00;44.60
14705;DHT22;7442;50.840;3.396;2023-02-17T13:13:01;25.10;43.90
14705;DHT22;7442;50.840;3.396;2023-02-17T13:15:35;25.00;43.90
14705;DHT22;7442;50.840;3.396;2023-02-17T13:18:10;25.00;43.80
14705;DHT22;7442;50.840;3.396;2023-02-17T13:20:40;25.20;43.60
14705;DHT22;7442;50.840;3.396;2023-02-17T13:23:24;25.30;43.70
14705;DHT22;7442;50.840;3.396;2023-02-17T13:25:45;25.20;43.60
14705;DHT22;7442;50.840;3.396;2023-02-17T13:28:41;25.20;43.70
14705;DHT22;7442;50.840;3.396;2023-02-17T13:30:50;25.10;43.70
14705;DHT22;7442;50.840;3.396;2023-02-17T13:35:55;25.10;43.80
14705;DHT22;7442;50.840;3.396;2023-02-17T13:38:28;25.10;43.70
14705;DHT22;7442;50.840;3.396;2023-02-17T13:41:01;25.20;43.70
14705;DHT22;7442;50.840;3.396;2023-02-17T13:43:39;25.20;43.80
14705;DHT22;7442;50.840;3.396;2023-02-17T13:46:06;25.10;43.80
14705;DHT22;7442;50.840;3.396;2023-02-17T13:48:37;25.10;43.70
14705;DHT22;7442;50.840;3.396;2023-02-17T13:51:23;25.20;43.70
14705;DHT22;7442;50.840;3.396;2023-02-17T13:53:41;25.30;43.60
14705;DHT22;7442;50.840;3.396;2023-02-17T13:56:26;25.20;43.70
14705;DHT22;7442;50.840;3.396;2023-02-17T13:59:14;25.20;43.60
14705;DHT22;7442;50.840;3.396;2023-02-17T14:01:47;25.20;43.60
14705;DHT22;7442;50.840;3.396;2023-02-17T14:04:27;25.20;43.60
14705;DHT22;7442;50.840;3.396;2023-02-17T14:07:02;25.20;43.60
14705;DHT22;7442;50.840;3.396;2023-02-17T14:09:33;25.20;43.60
14705;DHT22;7442;50.840;3.396;2023-02-17T14:12:10;25.20;43.60
14705;DHT22;7442;50.840;3.396;2023-02-17T14:14:38;25.20;43.60
14705;DHT22;7442;50.840;3.396;2023-02-17T14:17:29;25.20;43.60
14705;DHT22;7442;50.840;3.396;2023-02-17T14:20:00;25.30;43.60
14705;DHT22;7442;50.840;3.396;2023-02-17T14:22:33;25.30;43.50
14705;DHT22;7442;50.840;3.396;2023-02-17T14:25:14;25.30;43.60
14705;DHT22;7442;50.840;3.396;2023-02-17T14:27:49;25.20;43.60
14705;DHT22;7442;50.840;3.396;2023-02-17T14:30:35;25.20;43.70
14705;DHT22;7442;50.840;3.396;2023-02-17T14:35:54;25.10;43.90
14705;DHT22;7442;50.840;3.396;2023-02-17T14:38:26;25.20;43.90
14705;DHT22;7442;50.840;3.396;2023-02-17T14:40:57;25.20;43.90
14705;DHT22;7442;50.840;3.396;2023-02-17T14:43:29;25.20;43.90
14705;DHT22;7442;50.840;3.396;2023-02-17T14:45:59;25.10;44.50
14705;DHT22;7442;50.840;3.396;2023-02-17T14:48:30;25.20;43.90
14705;DHT22;7442;50.840;3.396;2023-02-17T14:51:00;25.20;44.00
14705;DHT22;7442;50.840;3.396;2023-02-17T14:53:32;25.20;44.00
14705;DHT22;7442;50.840;3.396;2023-02-17T14:56:13;25.10;44.10
14705;DHT22;7442;50.840;3.396;2023-02-17T14:58:41;25.10;44.30
14705;DHT22;7442;50.840;3.396;2023-02-17T15:01:13;25.20;44.20
14705;DHT22;7442;50.840;3.396;2023-02-17T15:03:44;25.10;43.90
14705;DHT22;7442;50.840;3.396;2023-02-17T15:06:26;25.10;44.00
14705;DHT22;7442;50.840;3.396;2023-02-17T15:08:56;25.10;44.00
14705;DHT22;7442;50.840;3.396;2023-02-17T15:11:30;25.10;43.90
14705;DHT22;7442;50.840;3.396;2023-02-17T15:14:00;25.00;43.90
14705;DHT22;7442;50.840;3.396;2023-02-17T15:16:32;25.00;43.90
14705;DHT22;7442;50.840;3.396;2023-02-17T15:19:02;25.00;43.90
14705;DHT22;7442;50.840;3.396;2023-02-17T15:21:34;25.00;43.90
14705;DHT22;7442;50.840;3.396;2023-02-17T15:24:22;25.00;44.10
14705;DHT22;7442;50.840;3.396;2023-02-17T15:26:47;25.00;44.10
14705;DHT22;7442;50.840;3.396;2023-02-17T15:29:20;25.00;44.30
14705;DHT22;7442;50.840;3.396;2023-02-17T15:31:52;25.00;44.50
14705;DHT22;7442;50.840;3.396;2023-02-17T15:34:32;25.00;45.10
14705;DHT22;7442;50.840;3.396;2023-02-17T15:37:00;25.10;44.60
14705;DHT22;7442;50.840;3.396;2023-02-17T15:39:31;25.10;44.50
14705;DHT22;7442;50.840;3.396;2023-02-17T15:42:09;25.10;44.60
14705;DHT22;7442;50.840;3.396;2023-02-17T15:44:44;25.10;44.70
14705;DHT22;7442;50.840;3.396;2023-02-17T15:47:16;25.00;44.60
14705;DHT22;7442;50.840;3.396;2023-02-17T15:49:47;25.00;44.50
14705;DHT22;7442;50.840;3.396;2023-02-17T15:52:17;25.00;44.80
14705;DHT22;7442;50.840;3.396;2023-02-17T15:54:47;25.00;44.80
14705;DHT22;7442;50.840;3.396;2023-02-17T15:57:23;25.00;44.80
14705;DHT22;7442;50.840;3.396;2023-02-17T15:59:53;25.00;44.80
14705;DHT22;7442;50.840;3.396;2023-02-17T16:02:24;25.00;44.70
14705;DHT22;7442;50.840;3.396;2023-02-17T16:04:54;25.00;44.60
14705;DHT22;7442;50.840;3.396;2023-02-17T16:07:24;25.00;44.60
14705;DHT22;7442;50.840;3.396;2023-02-17T16:09:54;25.00;44.60
14705;DHT22;7442;50.840;3.396;2023-02-17T16:12:25;25.00;44.80
14705;DHT22;7442;50.840;3.396;2023-02-17T16:14:56;25.00;45.00
14705;DHT22;7442;50.840;3.396;2023-02-17T16:17:26;24.90;45.10
14705;DHT22;7442;50.840;3.396;2023-02-17T16:19:56;24.90;45.30
14705;DHT22;7442;50.840;3.396;2023-02-17T16:22:26;24.90;45.30
14705;DHT22;7442;50.840;3.396;2023-02-17T16:24:58;24.90;45.00
14705;DHT22;7442;50.840;3.396;2023-02-17T16:27:28;24.80;45.10
14705;DHT22;7442;50.840;3.396;2023-02-17T16:30:00;24.80;45.10
14705;DHT22;7442;50.840;3.396;2023-02-17T16:32:31;24.90;45.10
14705;DHT22;7442;50.840;3.396;2023-02-17T16:35:01;24.90;45.10
14705;DHT22;7442;50.840;3.396;2023-02-17T16:37:31;24.90;45.20
14705;DHT22;7442;50.840;3.396;2023-02-17T16:40:01;24.80;45.20
14705;DHT22;7442;50.840;3.396;2023-02-17T16:42:33;24.90;45.50
14705;DHT22;7442;50.840;3.396;2023-02-17T16:45:03;24.90;45.40
14705;DHT22;7442;50.840;3.396;2023-02-17T16:47:35;24.90;45.50
14705;DHT22;7442;50.840;3.396;2023-02-17T16:50:06;24.90;45.50
14705;DHT22;7442;50.840;3.396;2023-02-17T16:52:37;24.80;45.40
14705;DHT22;7442;50.840;3.396;2023-02-17T16:55:08;24.80;45.50
14705;DHT22;7442;50.840;3.396;2023-02-17T16:57:38;24.80;45.60
14705;DHT22;7442;50.840;3.396;2023-02-17T17:00:12;24.70;45.70
14705;DHT22;7442;50.840;3.396;2023-02-17T17:02:44;24.70;45.60
14705;DHT22;7442;50.840;3.396;2023-02-17T17:05:15;24.70;45.50
14705;DHT22;7442;50.840;3.396;2023-02-17T17:07:46;24.70;45.50
14705;DHT22;7442;50.840;3.396;2023-02-17T17:10:20;24.70;45.40
14705;DHT22;7442;50.840;3.396;2023-02-17T17:12:50;24.70;45.40
14705;DHT22;7442;50.840;3.396;2023-02-17T17:15:21;24.70;45.40
14705;DHT22;7442;50.840;3.396;2023-02-17T17:17:59;24.70;45.40
14705;DHT22;7442;50.840;3.396;2023-02-17T17:20:32;24.60;45.30
14705;DHT22;7442;50.840;3.396;2023-02-17T17:23:04;24.60;45.30
14705;DHT22;7442;50.840;3.396;2023-02-17T17:25:40;24.70;45.30
14705;DHT22;7442;50.840;3.396;2023-02-17T17:28:13;24.70;45.20